sensor_id;sensor_type;location;lat;lon;timestamp;P1;durP1;ratioP1;P2;durP2;ratioP2
10005;SDS011;5042;42.626;23.382;2022-12-26T00:01:58;4.43;;;3.37;;
10005;SDS011;5042;42.626;23.382;2022-12-26T00:04:25;5.47;;;3.53;;
10005;SDS011;5042;42.626;23.382;2022-12-26T00:06:53;3.23;;;2.93;;
10005;SDS011;5042;42.626;23.382;2022-12-26T00:09:20;6.40;;;3.33;;
10005;SDS011;5042;42.626;23.382;2022-12-26T00:11:47;5.83;;;3.30;;
10005;SDS011;5042;42.626;23.382;2022-12-26T00:14:14;4.57;;;3.60;;
10005;SDS011;5042;42.626;23.382;2022-12-26T00:16:41;5.73;;;3.53;;
10005;SDS011;5042;42.626;23.382;2022-12-26T00:19:09;4.70;;;2.90;;
10005;SDS011;5042;42.626;23.382;2022-12-26T00:21:36;5.00;;;3.57;;
10005;SDS011;5042;42.626;23.382;2022-12-26T00:24:05;4.23;;;3.17;;
10005;SDS011;5042;42.626;23.382;2022-12-26T00:26:32;3.80;;;2.80;;
10005;SDS011;5042;42.626;23.382;2022-12-26T00:29:00;4.27;;;2.97;;
10005;SDS011;5042;42.626;23.382;2022-12-26T00:31:28;4.30;;;3.00;;
10005;SDS011;5042;42.626;23.382;2022-12-26T00:33:57;3.20;;;2.90;;
10005;SDS011;5042;42.626;23.382;2022-12-26T00:36:25;4.60;;;3.43;;
10005;SDS011;5042;42.626;23.382;2022-12-26T00:38:54;6.43;;;3.57;;
10005;SDS011;5042;42.626;23.382;2022-12-26T00:41:22;7.73;;;3.53;;
10005;SDS011;5042;42.626;23.382;2022-12-26T00:43:50;6.30;;;3.50;;
10005;SDS011;5042;42.626;23.382;2022-12-26T00:46:17;5.57;;;3.60;;
10005;SDS011;5042;42.626;23.382;2022-12-26T00:48:44;6.37;;;4.00;;
10005;SDS011;5042;42.626;23.382;2022-12-26T00:51:11;3.67;;;3.27;;
10005;SDS011;5042;42.626;23.382;2022-12-26T00:53:38;4.60;;;3.00;;
10005;SDS011;5042;42.626;23.382;2022-12-26T00:56:06;3.43;;;3.00;;
10005;SDS011;5042;42.626;23.382;2022-12-26T00:58:34;4.07;;;3.50;;
10005;SDS011;5042;42.626;23.382;2022-12-26T01:01:05;4.57;;;3.30;;
10005;SDS011;5042;42.626;23.382;2022-12-26T01:03:33;3.97;;;2.83;;
10005;SDS011;5042;42.626;23.382;2022-12-26T01:06:00;4.57;;;3.33;;
10005;SDS011;5042;42.626;23.382;2022-12-26T01:08:29;5.67;;;3.13;;
10005;SDS011;5042;42.626;23.382;2022-12-26T01:10:56;6.50;;;3.10;;
10005;SDS011;5042;42.626;23.382;2022-12-26T01:13:27;3.43;;;3.07;;
10005;SDS011;5042;42.626;23.382;2022-12-26T01:15:55;3.30;;;2.50;;
10005;SDS011;5042;42.626;23.382;2022-12-26T01:18:22;4.53;;;3.20;;
10005;SDS011;5042;42.626;23.382;2022-12-26T01:20:49;5.13;;;3.37;;
10005;SDS011;5042;42.626;23.382;2022-12-26T01:23:16;3.87;;;3.30;;
10005;SDS011;5042;42.626;23.382;2022-12-26T01:25:43;4.27;;;3.73;;
10005;SDS011;5042;42.626;23.382;2022-12-26T01:28:10;5.70;;;3.67;;
10005;SDS011;5042;42.626;23.382;2022-12-26T01:30:36;4.90;;;3.40;;
10005;SDS011;5042;42.626;23.382;2022-12-26T01:33:05;5.50;;;3.53;;
10005;SDS011;5042;42.626;23.382;2022-12-26T01:35:31;5.40;;;4.17;;
10005;SDS011;5042;42.626;23.382;2022-12-26T01:37:58;4.27;;;3.20;;
10005;SDS011;5042;42.626;23.382;2022-12-26T01:40:25;7.57;;;4.43;;
10005;SDS011;5042;42.626;23.382;2022-12-26T01:42:52;7.97;;;4.83;;
10005;SDS011;5042;42.626;23.382;2022-12-26T01:45:26;7.73;;;4.80;;
10005;SDS011;5042;42.626;23.382;2022-12-26T01:47:57;8.20;;;5.33;;
10005;SDS011;5042;42.626;23.382;2022-12-26T01:50:28;7.13;;;5.30;;
10005;SDS011;5042;42.626;23.382;2022-12-26T01:53:02;8.40;;;5.10;;
10005;SDS011;5042;42.626;23.382;2022-12-26T01:55:35;5.17;;;4.23;;
10005;SDS011;5042;42.626;23.382;2022-12-26T01:58:04;7.20;;;4.63;;
10005;SDS011;5042;42.626;23.382;2022-12-26T02:00:38;7.13;;;4.33;;
10005;SDS011;5042;42.626;23.382;2022-12-26T02:03:05;3.77;;;2.97;;
10005;SDS011;5042;42.626;23.382;2022-12-26T02:05:54;2.90;;;2.67;;
10005;SDS011;5042;42.626;23.382;2022-12-26T02:08:27;5.17;;;2.50;;
10005;SDS011;5042;42.626;23.382;2022-12-26T02:10:59;3.43;;;2.60;;
10005;SDS011;5042;42.626;23.382;2022-12-26T02:13:33;3.47;;;2.80;;
10005;SDS011;5042;42.626;23.382;2022-12-26T02:16:01;3.77;;;3.00;;
10005;SDS011;5042;42.626;23.382;2022-12-26T02:18:29;6.20;;;3.10;;
10005;SDS011;5042;42.626;23.382;2022-12-26T02:21:00;2.90;;;2.63;;
10005;SDS011;5042;42.626;23.382;2022-12-26T02:23:42;2.67;;;2.20;;
10005;SDS011;5042;42.626;23.382;2022-12-26T02:29:39;3.00;;;2.60;;
10005;SDS011;5042;42.626;23.382;2022-12-26T02:32:34;2.70;;;2.20;;
10005;SDS011;5042;42.626;23.382;2022-12-26T02:35:20;2.90;;;2.30;;
10005;SDS011;5042;42.626;23.382;2022-12-26T02:37:56;4.07;;;2.50;;
10005;SDS011;5042;42.626;23.382;2022-12-26T02:40:32;4.90;;;2.77;;
10005;SDS011;5042;42.626;23.382;2022-12-26T02:43:15;2.57;;;2.30;;
10005;SDS011;5042;42.626;23.382;2022-12-26T02:45:49;3.97;;;2.73;;
10005;SDS011;5042;42.626;23.382;2022-12-26T02:48:44;3.00;;;2.70;;
10005;SDS011;5042;42.626;23.382;2022-12-26T02:51:19;4.33;;;2.70;;
10005;SDS011;5042;42.626;23.382;2022-12-26T02:54:11;3.23;;;2.50;;
10005;SDS011;5042;42.626;23.382;2022-12-26T02:57:02;3.93;;;2.70;;
10005;SDS011;5042;42.626;23.382;2022-12-26T02:59:51;4.67;;;2.87;;
10005;SDS011;5042;42.626;23.382;2022-12-26T03:02:42;4.87;;;3.27;;
10005;SDS011;5042;42.626;23.382;2022-12-26T03:05:32;3.10;;;2.80;;
10005;SDS011;5042;42.626;23.382;2022-12-26T03:08:20;4.30;;;2.90;;
10005;SDS011;5042;42.626;23.382;2022-12-26T03:11:10;4.83;;;3.30;;
10005;SDS011;5042;42.626;23.382;2022-12-26T03:13:55;4.53;;;3.40;;
10005;SDS011;5042;42.626;23.382;2022-12-26T03:16:31;3.80;;;3.20;;
10005;SDS011;5042;42.626;23.382;2022-12-26T03:19:16;4.57;;;3.90;;
10005;SDS011;5042;42.626;23.382;2022-12-26T03:21:48;4.33;;;3.60;;
10005;SDS011;5042;42.626;23.382;2022-12-26T03:24:15;6.00;;;4.27;;
10005;SDS011;5042;42.626;23.382;2022-12-26T03:26:44;9.97;;;6.70;;
10005;SDS011;5042;42.626;23.382;2022-12-26T03:29:14;12.43;;;7.20;;
10005;SDS011;5042;42.626;23.382;2022-12-26T03:32:02;10.27;;;6.83;;
10005;SDS011;5042;42.626;23.382;2022-12-26T03:34:30;9.23;;;6.57;;
10005;SDS011;5042;42.626;23.382;2022-12-26T03:37:07;7.50;;;5.67;;
10005;SDS011;5042;42.626;23.382;2022-12-26T03:39:51;8.93;;;6.47;;
10005;SDS011;5042;42.626;23.382;2022-12-26T03:42:45;9.40;;;5.67;;
10005;SDS011;5042;42.626;23.382;2022-12-26T03:45:38;5.73;;;4.53;;
10005;SDS011;5042;42.626;23.382;2022-12-26T03:48:31;5.67;;;4.47;;
10005;SDS011;5042;42.626;23.382;2022-12-26T03:51:19;5.07;;;3.80;;
10005;SDS011;5042;42.626;23.382;2022-12-26T03:54:10;6.63;;;3.87;;
10005;SDS011;5042;42.626;23.382;2022-12-26T03:56:57;4.23;;;3.60;;
10005;SDS011;5042;42.626;23.382;2022-12-26T03:59:48;6.93;;;3.70;;
10005;SDS011;5042;42.626;23.382;2022-12-26T04:02:35;5.30;;;3.73;;
10005;SDS011;5042;42.626;23.382;2022-12-26T04:05:22;5.03;;;3.50;;
10005;SDS011;5042;42.626;23.382;2022-12-26T04:08:09;5.60;;;3.83;;
10005;SDS011;5042;42.626;23.382;2022-12-26T04:11:00;5.07;;;3.87;;
10005;SDS011;5042;42.626;23.382;2022-12-26T04:13:48;5.73;;;3.63;;
10005;SDS011;5042;42.626;23.382;2022-12-26T04:16:36;5.60;;;3.60;;
10005;SDS011;5042;42.626;23.382;2022-12-26T04:19:30;4.37;;;3.43;;
10005;SDS011;5042;42.626;23.382;2022-12-26T04:22:08;5.63;;;3.90;;
10005;SDS011;5042;42.626;23.382;2022-12-26T04:24:58;6.57;;;3.73;;
10005;SDS011;5042;42.626;23.382;2022-12-26T04:27:48;5.93;;;3.93;;
10005;SDS011;5042;42.626;23.382;2022-12-26T04:30:33;5.47;;;3.63;;
10005;SDS011;5042;42.626;23.382;2022-12-26T04:33:23;4.70;;;3.60;;
10005;SDS011;5042;42.626;23.382;2022-12-26T04:36:14;6.13;;;3.90;;
10005;SDS011;5042;42.626;23.382;2022-12-26T04:39:03;4.07;;;3.63;;
10005;SDS011;5042;42.626;23.382;2022-12-26T04:41:52;4.00;;;3.60;;
10005;SDS011;5042;42.626;23.382;2022-12-26T04:44:41;4.97;;;3.80;;
10005;SDS011;5042;42.626;23.382;2022-12-26T04:47:09;5.80;;;4.13;;
10005;SDS011;5042;42.626;23.382;2022-12-26T04:49:40;6.23;;;4.20;;
10005;SDS011;5042;42.626;23.382;2022-12-26T04:52:24;6.07;;;4.13;;
10005;SDS011;5042;42.626;23.382;2022-12-26T04:55:12;5.33;;;4.10;;
10005;SDS011;5042;42.626;23.382;2022-12-26T04:57:39;6.50;;;4.00;;
10005;SDS011;5042;42.626;23.382;2022-12-26T05:00:08;5.13;;;4.63;;
10005;SDS011;5042;42.626;23.382;2022-12-26T05:02:35;5.67;;;4.00;;
10005;SDS011;5042;42.626;23.382;2022-12-26T05:05:19;5.37;;;4.10;;
10005;SDS011;5042;42.626;23.382;2022-12-26T05:08:03;7.63;;;4.43;;
10005;SDS011;5042;42.626;23.382;2022-12-26T05:10:48;5.20;;;3.83;;
10005;SDS011;5042;42.626;23.382;2022-12-26T05:13:15;6.67;;;4.20;;
10005;SDS011;5042;42.626;23.382;2022-12-26T05:15:43;4.03;;;3.33;;
10005;SDS011;5042;42.626;23.382;2022-12-26T05:18:27;4.87;;;3.50;;
10005;SDS011;5042;42.626;23.382;2022-12-26T05:21:11;5.10;;;3.23;;
10005;SDS011;5042;42.626;23.382;2022-12-26T05:23:57;5.47;;;3.20;;
10005;SDS011;5042;42.626;23.382;2022-12-26T05:26:41;5.13;;;3.43;;
10005;SDS011;5042;42.626;23.382;2022-12-26T05:29:26;4.87;;;3.33;;
10005;SDS011;5042;42.626;23.382;2022-12-26T05:31:54;3.93;;;3.30;;
10005;SDS011;5042;42.626;23.382;2022-12-26T05:34:21;5.27;;;3.50;;
10005;SDS011;5042;42.626;23.382;2022-12-26T05:36:47;6.63;;;4.47;;
10005;SDS011;5042;42.626;23.382;2022-12-26T05:39:16;5.13;;;4.33;;
10005;SDS011;5042;42.626;23.382;2022-12-26T05:41:43;5.43;;;4.20;;
10005;SDS011;5042;42.626;23.382;2022-12-26T05:44:10;10.30;;;6.70;;
10005;SDS011;5042;42.626;23.382;2022-12-26T05:46:37;11.93;;;8.23;;
10005;SDS011;5042;42.626;23.382;2022-12-26T05:49:07;9.43;;;7.30;;
10005;SDS011;5042;42.626;23.382;2022-12-26T05:51:34;11.20;;;7.43;;
10005;SDS011;5042;42.626;23.382;2022-12-26T05:54:01;10.63;;;7.17;;
10005;SDS011;5042;42.626;23.382;2022-12-26T05:56:28;12.30;;;7.33;;
10005;SDS011;5042;42.626;23.382;2022-12-26T05:58:55;8.50;;;5.80;;
10005;SDS011;5042;42.626;23.382;2022-12-26T06:01:24;7.87;;;5.83;;
10005;SDS011;5042;42.626;23.382;2022-12-26T06:03:53;8.47;;;5.97;;
10005;SDS011;5042;42.626;23.382;2022-12-26T06:06:23;13.53;;;5.67;;
10005;SDS011;5042;42.626;23.382;2022-12-26T06:08:52;7.50;;;5.33;;
10005;SDS011;5042;42.626;23.382;2022-12-26T06:11:20;9.73;;;5.57;;
10005;SDS011;5042;42.626;23.382;2022-12-26T06:13:49;8.07;;;5.63;;
10005;SDS011;5042;42.626;23.382;2022-12-26T06:16:16;10.00;;;6.00;;
10005;SDS011;5042;42.626;23.382;2022-12-26T06:18:44;10.83;;;6.77;;
10005;SDS011;5042;42.626;23.382;2022-12-26T06:21:13;7.60;;;6.03;;
10005;SDS011;5042;42.626;23.382;2022-12-26T06:23:42;8.60;;;6.43;;
10005;SDS011;5042;42.626;23.382;2022-12-26T06:26:09;11.33;;;6.37;;
10005;SDS011;5042;42.626;23.382;2022-12-26T06:28:37;8.47;;;6.50;;
10005;SDS011;5042;42.626;23.382;2022-12-26T06:31:05;8.90;;;5.60;;
10005;SDS011;5042;42.626;23.382;2022-12-26T06:33:33;9.20;;;6.00;;
10005;SDS011;5042;42.626;23.382;2022-12-26T06:36:01;6.97;;;5.40;;
10005;SDS011;5042;42.626;23.382;2022-12-26T06:38:29;7.77;;;5.90;;
10005;SDS011;5042;42.626;23.382;2022-12-26T06:40:57;10.20;;;6.73;;
10005;SDS011;5042;42.626;23.382;2022-12-26T06:43:24;7.83;;;5.87;;
10005;SDS011;5042;42.626;23.382;2022-12-26T06:45:53;11.63;;;6.67;;
10005;SDS011;5042;42.626;23.382;2022-12-26T06:48:21;6.57;;;5.47;;
10005;SDS011;5042;42.626;23.382;2022-12-26T06:50:47;7.30;;;4.90;;
10005;SDS011;5042;42.626;23.382;2022-12-26T06:53:14;7.30;;;4.83;;
10005;SDS011;5042;42.626;23.382;2022-12-26T06:55:41;6.87;;;4.40;;
10005;SDS011;5042;42.626;23.382;2022-12-26T06:58:09;4.73;;;4.10;;
10005;SDS011;5042;42.626;23.382;2022-12-26T07:00:36;5.43;;;3.83;;
10005;SDS011;5042;42.626;23.382;2022-12-26T07:03:03;4.57;;;4.00;;
10005;SDS011;5042;42.626;23.382;2022-12-26T07:05:30;4.90;;;4.13;;
10005;SDS011;5042;42.626;23.382;2022-12-26T07:07:56;6.00;;;4.17;;
10005;SDS011;5042;42.626;23.382;2022-12-26T07:10:23;6.57;;;5.23;;
10005;SDS011;5042;42.626;23.382;2022-12-26T07:12:50;6.93;;;4.73;;
10005;SDS011;5042;42.626;23.382;2022-12-26T07:15:18;7.40;;;5.10;;
10005;SDS011;5042;42.626;23.382;2022-12-26T07:17:45;5.77;;;4.60;;
10005;SDS011;5042;42.626;23.382;2022-12-26T07:20:11;4.37;;;3.53;;
10005;SDS011;5042;42.626;23.382;2022-12-26T07:22:38;5.17;;;3.23;;
10005;SDS011;5042;42.626;23.382;2022-12-26T07:25:05;4.20;;;3.30;;
10005;SDS011;5042;42.626;23.382;2022-12-26T07:27:32;4.33;;;3.27;;
10005;SDS011;5042;42.626;23.382;2022-12-26T07:29:59;4.30;;;3.40;;
10005;SDS011;5042;42.626;23.382;2022-12-26T07:32:27;5.73;;;3.60;;
10005;SDS011;5042;42.626;23.382;2022-12-26T07:34:54;4.00;;;3.50;;
10005;SDS011;5042;42.626;23.382;2022-12-26T07:37:21;5.07;;;3.60;;
10005;SDS011;5042;42.626;23.382;2022-12-26T07:39:47;4.73;;;3.60;;
10005;SDS011;5042;42.626;23.382;2022-12-26T07:42:14;5.47;;;3.50;;
10005;SDS011;5042;42.626;23.382;2022-12-26T07:44:41;4.13;;;3.20;;
10005;SDS011;5042;42.626;23.382;2022-12-26T07:47:08;6.53;;;3.40;;
10005;SDS011;5042;42.626;23.382;2022-12-26T07:49:36;6.27;;;3.83;;
10005;SDS011;5042;42.626;23.382;2022-12-26T07:52:03;4.50;;;3.70;;
10005;SDS011;5042;42.626;23.382;2022-12-26T07:54:30;5.10;;;3.63;;
10005;SDS011;5042;42.626;23.382;2022-12-26T07:56:56;5.13;;;4.10;;
10005;SDS011;5042;42.626;23.382;2022-12-26T07:59:23;6.43;;;4.47;;
10005;SDS011;5042;42.626;23.382;2022-12-26T08:01:50;5.80;;;4.50;;
10005;SDS011;5042;42.626;23.382;2022-12-26T08:04:17;5.40;;;4.20;;
10005;SDS011;5042;42.626;23.382;2022-12-26T08:06:45;5.57;;;4.03;;
10005;SDS011;5042;42.626;23.382;2022-12-26T08:09:13;4.13;;;3.70;;
10005;SDS011;5042;42.626;23.382;2022-12-26T08:11:41;4.57;;;3.77;;
10005;SDS011;5042;42.626;23.382;2022-12-26T08:14:09;6.17;;;4.00;;
10005;SDS011;5042;42.626;23.382;2022-12-26T08:16:37;6.23;;;4.30;;
10005;SDS011;5042;42.626;23.382;2022-12-26T08:19:04;6.47;;;4.47;;
10005;SDS011;5042;42.626;23.382;2022-12-26T08:21:30;6.53;;;4.97;;
10005;SDS011;5042;42.626;23.382;2022-12-26T08:23:59;7.10;;;4.97;;
10005;SDS011;5042;42.626;23.382;2022-12-26T08:26:25;4.73;;;3.40;;
10005;SDS011;5042;42.626;23.382;2022-12-26T08:28:53;5.30;;;4.33;;
10005;SDS011;5042;42.626;23.382;2022-12-26T08:31:21;6.07;;;4.83;;
10005;SDS011;5042;42.626;23.382;2022-12-26T08:33:48;9.00;;;5.90;;
10005;SDS011;5042;42.626;23.382;2022-12-26T08:36:15;11.20;;;7.50;;
10005;SDS011;5042;42.626;23.382;2022-12-26T08:38:43;12.17;;;8.00;;
10005;SDS011;5042;42.626;23.382;2022-12-26T08:41:11;13.77;;;10.00;;
10005;SDS011;5042;42.626;23.382;2022-12-26T08:43:38;12.13;;;9.17;;
10005;SDS011;5042;42.626;23.382;2022-12-26T08:46:05;18.77;;;11.53;;
10005;SDS011;5042;42.626;23.382;2022-12-26T08:48:34;17.63;;;10.97;;
10005;SDS011;5042;42.626;23.382;2022-12-26T08:51:03;15.27;;;11.27;;
10005;SDS011;5042;42.626;23.382;2022-12-26T08:53:32;16.80;;;11.27;;
10005;SDS011;5042;42.626;23.382;2022-12-26T08:56:01;13.83;;;10.23;;
10005;SDS011;5042;42.626;23.382;2022-12-26T08:58:30;14.80;;;10.60;;
10005;SDS011;5042;42.626;23.382;2022-12-26T09:01:04;15.00;;;9.10;;
10005;SDS011;5042;42.626;23.382;2022-12-26T09:03:32;15.33;;;10.40;;
10005;SDS011;5042;42.626;23.382;2022-12-26T09:05:59;16.67;;;9.50;;
10005;SDS011;5042;42.626;23.382;2022-12-26T09:08:27;13.63;;;8.73;;
10005;SDS011;5042;42.626;23.382;2022-12-26T09:10:54;10.67;;;7.20;;
10005;SDS011;5042;42.626;23.382;2022-12-26T09:13:21;11.67;;;7.60;;
10005;SDS011;5042;42.626;23.382;2022-12-26T09:15:49;7.40;;;6.10;;
10005;SDS011;5042;42.626;23.382;2022-12-26T09:18:16;9.57;;;7.33;;
10005;SDS011;5042;42.626;23.382;2022-12-26T09:20:43;11.63;;;7.43;;
10005;SDS011;5042;42.626;23.382;2022-12-26T09:23:10;11.30;;;7.77;;
10005;SDS011;5042;42.626;23.382;2022-12-26T09:25:36;8.10;;;6.73;;
10005;SDS011;5042;42.626;23.382;2022-12-26T09:28:03;12.30;;;7.23;;
10005;SDS011;5042;42.626;23.382;2022-12-26T09:30:30;10.17;;;7.37;;
10005;SDS011;5042;42.626;23.382;2022-12-26T09:32:58;9.70;;;7.27;;
10005;SDS011;5042;42.626;23.382;2022-12-26T09:35:25;9.73;;;7.10;;
10005;SDS011;5042;42.626;23.382;2022-12-26T09:37:51;9.97;;;7.03;;
10005;SDS011;5042;42.626;23.382;2022-12-26T09:40:21;11.13;;;7.40;;
10005;SDS011;5042;42.626;23.382;2022-12-26T09:42:55;8.77;;;6.77;;
10005;SDS011;5042;42.626;23.382;2022-12-26T09:45:33;12.97;;;7.30;;
10005;SDS011;5042;42.626;23.382;2022-12-26T09:48:14;12.50;;;7.10;;
10005;SDS011;5042;42.626;23.382;2022-12-26T09:50:47;14.73;;;7.80;;
10005;SDS011;5042;42.626;23.382;2022-12-26T09:53:16;8.83;;;6.77;;
10005;SDS011;5042;42.626;23.382;2022-12-26T09:55:48;9.47;;;7.10;;
10005;SDS011;5042;42.626;23.382;2022-12-26T09:58:21;11.53;;;6.77;;
10005;SDS011;5042;42.626;23.382;2022-12-26T10:00:54;8.40;;;6.33;;
10005;SDS011;5042;42.626;23.382;2022-12-26T10:03:25;7.40;;;6.30;;
10005;SDS011;5042;42.626;23.382;2022-12-26T10:11:44;9.17;;;6.47;;
10005;SDS011;5042;42.626;23.382;2022-12-26T10:14:25;8.97;;;5.87;;
10005;SDS011;5042;42.626;23.382;2022-12-26T10:17:02;8.67;;;5.53;;
10005;SDS011;5042;42.626;23.382;2022-12-26T10:19:41;7.60;;;5.63;;
10005;SDS011;5042;42.626;23.382;2022-12-26T10:22:21;6.53;;;5.27;;
10005;SDS011;5042;42.626;23.382;2022-12-26T10:25:01;8.03;;;5.07;;
10005;SDS011;5042;42.626;23.382;2022-12-26T10:27:37;7.87;;;5.37;;
10005;SDS011;5042;42.626;23.382;2022-12-26T10:30:06;6.93;;;5.13;;
10005;SDS011;5042;42.626;23.382;2022-12-26T10:32:43;7.87;;;5.57;;
10005;SDS011;5042;42.626;23.382;2022-12-26T10:35:19;7.23;;;5.33;;
10005;SDS011;5042;42.626;23.382;2022-12-26T10:37:48;9.00;;;5.23;;
10005;SDS011;5042;42.626;23.382;2022-12-26T10:40:18;8.83;;;5.60;;
10005;SDS011;5042;42.626;23.382;2022-12-26T10:42:49;6.17;;;4.83;;
10005;SDS011;5042;42.626;23.382;2022-12-26T10:45:19;8.17;;;5.00;;
10005;SDS011;5042;42.626;23.382;2022-12-26T10:47:52;5.27;;;4.30;;
10005;SDS011;5042;42.626;23.382;2022-12-26T10:50:22;5.63;;;4.23;;
10005;SDS011;5042;42.626;23.382;2022-12-26T10:52:51;7.13;;;4.20;;
10005;SDS011;5042;42.626;23.382;2022-12-26T10:55:20;6.43;;;4.77;;
10005;SDS011;5042;42.626;23.382;2022-12-26T10:57:59;9.40;;;5.20;;
10005;SDS011;5042;42.626;23.382;2022-12-26T11:00:30;7.20;;;4.93;;
10005;SDS011;5042;42.626;23.382;2022-12-26T11:03:03;7.63;;;4.93;;
10005;SDS011;5042;42.626;23.382;2022-12-26T11:05:32;6.97;;;5.73;;
10005;SDS011;5042;42.626;23.382;2022-12-26T11:08:05;6.37;;;5.20;;
10005;SDS011;5042;42.626;23.382;2022-12-26T11:10:34;8.77;;;5.40;;
10005;SDS011;5042;42.626;23.382;2022-12-26T11:13:03;7.20;;;4.93;;
10005;SDS011;5042;42.626;23.382;2022-12-26T11:15:33;6.40;;;4.40;;
10005;SDS011;5042;42.626;23.382;2022-12-26T11:18:07;6.87;;;4.77;;
10005;SDS011;5042;42.626;23.382;2022-12-26T11:20:43;5.87;;;4.87;;
10005;SDS011;5042;42.626;23.382;2022-12-26T11:23:21;6.87;;;4.37;;
10005;SDS011;5042;42.626;23.382;2022-12-26T11:25:50;4.50;;;3.60;;
10005;SDS011;5042;42.626;23.382;2022-12-26T11:28:22;5.10;;;3.33;;
10005;SDS011;5042;42.626;23.382;2022-12-26T11:30:54;3.67;;;2.83;;
10005;SDS011;5042;42.626;23.382;2022-12-26T11:33:23;3.83;;;3.40;;
10005;SDS011;5042;42.626;23.382;2022-12-26T11:35:56;6.23;;;3.57;;
10005;SDS011;5042;42.626;23.382;2022-12-26T11:38:30;3.93;;;2.77;;
10005;SDS011;5042;42.626;23.382;2022-12-26T11:41:09;3.10;;;2.77;;
10005;SDS011;5042;42.626;23.382;2022-12-26T11:43:58;5.70;;;3.37;;
10005;SDS011;5042;42.626;23.382;2022-12-26T11:46:34;4.03;;;2.80;;
10005;SDS011;5042;42.626;23.382;2022-12-26T11:49:03;3.60;;;2.53;;
10005;SDS011;5042;42.626;23.382;2022-12-26T11:51:34;2.50;;;2.30;;
10005;SDS011;5042;42.626;23.382;2022-12-26T11:54:12;3.80;;;2.40;;
10005;SDS011;5042;42.626;23.382;2022-12-26T11:56:45;2.83;;;2.40;;
10005;SDS011;5042;42.626;23.382;2022-12-26T11:59:15;3.40;;;2.97;;
10005;SDS011;5042;42.626;23.382;2022-12-26T12:01:44;4.00;;;3.20;;
10005;SDS011;5042;42.626;23.382;2022-12-26T12:04:11;14.73;;;10.87;;
10005;SDS011;5042;42.626;23.382;2022-12-26T12:06:44;5.80;;;3.80;;
10005;SDS011;5042;42.626;23.382;2022-12-26T12:09:26;6.03;;;3.30;;
10005;SDS011;5042;42.626;23.382;2022-12-26T12:11:59;6.20;;;2.80;;
10005;SDS011;5042;42.626;23.382;2022-12-26T12:14:37;3.43;;;2.63;;
10005;SDS011;5042;42.626;23.382;2022-12-26T12:17:13;3.90;;;2.80;;
10005;SDS011;5042;42.626;23.382;2022-12-26T12:19:50;2.47;;;2.27;;
10005;SDS011;5042;42.626;23.382;2022-12-26T12:25:43;2.90;;;2.40;;
10005;SDS011;5042;42.626;23.382;2022-12-26T12:28:25;4.27;;;2.50;;
10005;SDS011;5042;42.626;23.382;2022-12-26T12:31:09;5.23;;;3.23;;
10005;SDS011;5042;42.626;23.382;2022-12-26T12:33:45;3.30;;;2.60;;
10005;SDS011;5042;42.626;23.382;2022-12-26T12:36:16;3.33;;;3.03;;
10005;SDS011;5042;42.626;23.382;2022-12-26T12:38:50;3.07;;;2.77;;
10005;SDS011;5042;42.626;23.382;2022-12-26T12:41:34;3.00;;;2.70;;
10005;SDS011;5042;42.626;23.382;2022-12-26T12:44:25;3.97;;;2.40;;
10005;SDS011;5042;42.626;23.382;2022-12-26T12:47:03;4.80;;;3.07;;
10005;SDS011;5042;42.626;23.382;2022-12-26T12:49:40;4.83;;;2.67;;
10005;SDS011;5042;42.626;23.382;2022-12-26T12:52:19;5.37;;;3.00;;
10005;SDS011;5042;42.626;23.382;2022-12-26T12:55:08;3.90;;;2.80;;
10005;SDS011;5042;42.626;23.382;2022-12-26T12:57:48;3.47;;;2.50;;
10005;SDS011;5042;42.626;23.382;2022-12-26T13:00:18;3.57;;;2.80;;
10005;SDS011;5042;42.626;23.382;2022-12-26T13:02:50;4.23;;;2.93;;
10005;SDS011;5042;42.626;23.382;2022-12-26T13:05:29;3.10;;;2.80;;
10005;SDS011;5042;42.626;23.382;2022-12-26T13:08:09;4.23;;;2.53;;
10005;SDS011;5042;42.626;23.382;2022-12-26T13:10:44;2.73;;;2.13;;
10005;SDS011;5042;42.626;23.382;2022-12-26T13:13:16;4.30;;;2.67;;
10005;SDS011;5042;42.626;23.382;2022-12-26T13:15:47;4.27;;;3.30;;
10005;SDS011;5042;42.626;23.382;2022-12-26T13:18:19;4.83;;;2.90;;
10005;SDS011;5042;42.626;23.382;2022-12-26T13:20:48;3.77;;;2.90;;
10005;SDS011;5042;42.626;23.382;2022-12-26T13:23:19;6.00;;;3.47;;
10005;SDS011;5042;42.626;23.382;2022-12-26T13:26:10;27.87;;;16.57;;
10005;SDS011;5042;42.626;23.382;2022-12-26T13:28:42;7.30;;;5.60;;
10005;SDS011;5042;42.626;23.382;2022-12-26T13:31:16;5.47;;;3.27;;
10005;SDS011;5042;42.626;23.382;2022-12-26T13:33:43;3.43;;;2.80;;
10005;SDS011;5042;42.626;23.382;2022-12-26T13:36:10;5.40;;;3.20;;
10005;SDS011;5042;42.626;23.382;2022-12-26T13:41:58;3.67;;;2.60;;
10005;SDS011;5042;42.626;23.382;2022-12-26T13:44:46;4.00;;;2.80;;
10005;SDS011;5042;42.626;23.382;2022-12-26T13:47:31;4.20;;;2.63;;
10005;SDS011;5042;42.626;23.382;2022-12-26T13:53:06;4.40;;;3.43;;
10005;SDS011;5042;42.626;23.382;2022-12-26T13:55:52;6.80;;;3.60;;
10005;SDS011;5042;42.626;23.382;2022-12-26T14:01:24;4.60;;;3.20;;
10005;SDS011;5042;42.626;23.382;2022-12-26T14:04:06;2.77;;;2.50;;
10005;SDS011;5042;42.626;23.382;2022-12-26T14:06:53;4.73;;;3.53;;
10005;SDS011;5042;42.626;23.382;2022-12-26T14:09:38;5.50;;;3.13;;
10005;SDS011;5042;42.626;23.382;2022-12-26T14:12:19;3.90;;;2.80;;
10005;SDS011;5042;42.626;23.382;2022-12-26T14:14:59;4.03;;;2.53;;
10005;SDS011;5042;42.626;23.382;2022-12-26T14:17:34;2.97;;;2.63;;
10005;SDS011;5042;42.626;23.382;2022-12-26T14:20:13;3.00;;;2.70;;
10005;SDS011;5042;42.626;23.382;2022-12-26T14:22:50;4.17;;;3.00;;
10005;SDS011;5042;42.626;23.382;2022-12-26T14:25:29;4.60;;;3.27;;
10005;SDS011;5042;42.626;23.382;2022-12-26T14:28:13;3.43;;;3.13;;
10005;SDS011;5042;42.626;23.382;2022-12-26T14:30:50;3.70;;;3.07;;
10005;SDS011;5042;42.626;23.382;2022-12-26T14:33:26;3.60;;;3.30;;
10005;SDS011;5042;42.626;23.382;2022-12-26T14:36:01;5.40;;;3.80;;
10005;SDS011;5042;42.626;23.382;2022-12-26T14:38:41;5.70;;;3.73;;
10005;SDS011;5042;42.626;23.382;2022-12-26T14:41:15;6.10;;;4.77;;
10005;SDS011;5042;42.626;23.382;2022-12-26T14:44:04;10.13;;;6.20;;
10005;SDS011;5042;42.626;23.382;2022-12-26T14:46:54;12.00;;;7.23;;
10005;SDS011;5042;42.626;23.382;2022-12-26T14:49:33;10.27;;;7.43;;
10005;SDS011;5042;42.626;23.382;2022-12-26T14:55:37;9.57;;;6.33;;
10005;SDS011;5042;42.626;23.382;2022-12-26T15:04:30;11.80;;;6.70;;
10005;SDS011;5042;42.626;23.382;2022-12-26T15:07:28;7.33;;;5.97;;
10005;SDS011;5042;42.626;23.382;2022-12-26T15:16:22;13.80;;;7.43;;
10005;SDS011;5042;42.626;23.382;2022-12-26T15:19:15;11.87;;;8.10;;
10005;SDS011;5042;42.626;23.382;2022-12-26T15:28:38;13.60;;;8.53;;
10005;SDS011;5042;42.626;23.382;2022-12-26T15:31:39;12.73;;;7.73;;
10005;SDS011;5042;42.626;23.382;2022-12-26T15:34:27;17.40;;;9.50;;
10005;SDS011;5042;42.626;23.382;2022-12-26T15:37:03;15.13;;;8.90;;
10005;SDS011;5042;42.626;23.382;2022-12-26T15:39:36;13.30;;;7.43;;
10005;SDS011;5042;42.626;23.382;2022-12-26T15:42:15;12.20;;;7.70;;
10005;SDS011;5042;42.626;23.382;2022-12-26T15:44:54;10.60;;;7.57;;
10005;SDS011;5042;42.626;23.382;2022-12-26T15:47:33;12.67;;;7.63;;
10005;SDS011;5042;42.626;23.382;2022-12-26T15:50:08;14.70;;;7.40;;
10005;SDS011;5042;42.626;23.382;2022-12-26T15:52:49;12.40;;;7.43;;
10005;SDS011;5042;42.626;23.382;2022-12-26T16:01:38;16.63;;;9.57;;
10005;SDS011;5042;42.626;23.382;2022-12-26T16:04:12;27.07;;;14.77;;
10005;SDS011;5042;42.626;23.382;2022-12-26T16:06:54;39.20;;;20.97;;
10005;SDS011;5042;42.626;23.382;2022-12-26T16:09:44;33.63;;;17.20;;
10005;SDS011;5042;42.626;23.382;2022-12-26T16:12:21;26.00;;;12.83;;
10005;SDS011;5042;42.626;23.382;2022-12-26T16:14:58;23.77;;;13.50;;
10005;SDS011;5042;42.626;23.382;2022-12-26T16:17:27;23.93;;;14.63;;